Portada
METAR-TAF:

METAR-TAF

Aeroports :

Iaroslavl, Rússia

latitud: 57-33-38N, longitud: 040-09-27E, altitud: 87 m

Observació

L'informe es va fer fa 10 minuts, a les 12:00 UTC
Vent 10 kt del Sud-Oest
Temperatura 2°C
Humitat 69%
Pressió 996 hPa
Visibilitat 10 km o més
Cel ennuvolat a una alçada de 2600 ft

METAR: UUDL 281200Z 22005MPS 9999 BKN026 02/M03 Q0996 R23/620349 NOSIG RMK QFE738

Hora: 15:10 (12:10 UTC)

Pronòstic

L'informe es va fer fa 1 hora i 13 minuts, a les 10:57 UTC
Pronòstic vàlid del 28 a les 12 UTC al 29 a les 12 UTC
Vent 6 kt del Oest/Sud-Oest
Visibilitat 10 km o més
Cel ennuvolat a una alçada de 1600 ft
Temporalment
l' 28 a les 12 UTC al 28 a les 18 UTC
Visibilitat: 4000 m
Cel ennuvolat a una alçada de 1100 ft, Cumulonimbus.
xàfecs de pluja, neu

TAF: UUDL 281057Z 2812/2912 24003MPS 9999 BKN016 TX02/2812Z TNM00/2906Z TEMPO 2812/2818 4000 -SHRASN BKN011CB

Observacions i pronòstics meteorològics de més de 4000 aeroports (METAR i TAF).

Les estacions disponibles són els punts grocs i vermells al mapa.

Posi el ratolí al punt desitjat per veure el nom de l'estació.

Feu clic per veure les observacions i els pronòstics meteorològics.

Per canviar el mapa: feu clic els botons verds amb una creu de color negre per apropar; al botó verd amb un guió per allunyar la imatge; o en les fletxes verdes per a mapes adjacents.


METAR-TAF: